createdAt,value
2024-04-10T00:00:54.550Z,0.00
2024-04-10T00:01:54.223Z,0.00
2024-04-10T00:02:54.418Z,0.00
2024-04-10T00:04:16.696Z,0.00
2024-04-10T00:04:54.591Z,0.00
2024-04-10T00:05:54.737Z,0.00
2024-04-10T00:06:54.377Z,0.00
2024-04-10T00:07:54.636Z,0.00
2024-04-10T00:08:54.308Z,0.00
2024-04-10T00:09:54.533Z,0.00
2024-04-10T00:10:54.322Z,0.00
2024-04-10T00:11:54.553Z,0.00
2024-04-10T00:12:54.183Z,0.00
2024-04-10T00:14:15.441Z,0.00
2024-04-10T00:14:54.157Z,0.00
2024-04-10T00:15:54.414Z,0.00
2024-04-10T00:16:54.136Z,0.00
2024-04-10T00:17:54.410Z,0.00
2024-04-10T00:18:54.240Z,0.00
2024-04-10T00:19:54.301Z,0.00
2024-04-10T00:20:54.005Z,0.00
2024-04-10T00:21:54.227Z,0.00
2024-04-10T00:22:54.447Z,0.00
2024-04-10T00:24:15.648Z,0.00
2024-04-10T00:24:54.431Z,0.00
2024-04-10T00:25:54.168Z,0.00
2024-04-10T00:26:54.382Z,0.00
2024-04-10T00:27:54.122Z,0.00
2024-04-10T00:28:54.375Z,0.00
2024-04-10T00:29:54.082Z,0.00
2024-04-10T00:30:54.271Z,0.00
2024-04-10T00:31:54.064Z,0.00
2024-04-10T00:33:00.985Z,0.00
2024-04-10T00:34:16.372Z,0.00
2024-04-10T00:34:54.047Z,0.00
2024-04-10T00:35:54.231Z,0.00
2024-04-10T00:36:53.949Z,0.00
2024-04-10T00:37:54.233Z,0.00
2024-04-10T00:38:53.928Z,0.00
2024-04-10T00:39:54.143Z,0.00
2024-04-10T00:40:53.884Z,0.00
2024-04-10T00:41:54.076Z,0.00
2024-04-10T00:42:53.807Z,0.00
2024-04-10T00:44:15.564Z,0.00
2024-04-10T00:44:53.769Z,0.00
2024-04-10T00:45:54.001Z,0.00
2024-04-10T00:47:01.682Z,0.00
2024-04-10T00:47:54.009Z,0.00
2024-04-10T00:48:54.156Z,0.00
2024-04-10T00:49:53.784Z,0.00
2024-04-10T00:50:53.936Z,0.00
2024-04-10T00:51:54.152Z,0.00
2024-04-10T00:52:53.942Z,0.00
2024-04-10T00:54:16.090Z,0.00
2024-04-10T00:54:53.878Z,0.00
2024-04-10T00:55:54.143Z,0.00
2024-04-10T00:56:53.825Z,0.00
2024-04-10T00:57:54.037Z,0.00
2024-04-10T00:58:53.764Z,0.00
2024-04-10T00:59:53.978Z,0.00
2024-04-10T01:00:53.758Z,0.00
2024-04-10T01:01:53.974Z,0.00
2024-04-10T01:02:53.732Z,0.00
2024-04-10T01:04:14.724Z,0.00
2024-04-10T01:04:53.788Z,0.00
2024-04-10T01:05:53.882Z,0.00
2024-04-10T01:06:53.586Z,0.00
2024-04-10T01:07:53.830Z,0.00
2024-04-10T01:08:53.534Z,0.00
2024-04-10T01:09:53.789Z,0.00
2024-04-10T01:10:53.511Z,0.00
2024-04-10T01:11:54.054Z,0.00
2024-04-10T01:12:53.454Z,0.00
2024-04-10T01:14:15.233Z,0.00
2024-04-10T01:15:01.196Z,0.00
2024-04-10T01:15:53.507Z,0.00
2024-04-10T01:16:53.946Z,0.00
2024-04-10T01:17:53.579Z,0.00
2024-04-10T01:18:53.693Z,0.00
2024-04-10T01:19:53.420Z,0.00
2024-04-10T01:20:53.630Z,0.00
2024-04-10T01:21:53.843Z,0.00
2024-04-10T01:22:53.615Z,0.00
2024-04-10T01:24:19.073Z,0.00
2024-04-10T01:24:53.788Z,0.00
2024-04-10T01:25:53.569Z,0.00
2024-04-10T01:26:53.753Z,0.00
2024-04-10T01:27:53.466Z,0.00
2024-04-10T01:28:53.735Z,0.00
2024-04-10T01:29:53.412Z,0.00
2024-04-10T01:30:53.654Z,0.00
2024-04-10T01:31:53.476Z,0.00
2024-04-10T01:32:54.156Z,0.00
2024-04-10T01:34:15.544Z,0.00
2024-04-10T01:34:53.720Z,0.00
2024-04-10T01:35:53.563Z,0.00
2024-04-10T01:36:53.690Z,0.00
2024-04-10T01:37:53.526Z,0.00
2024-04-10T01:38:53.607Z,0.00
2024-04-10T01:39:53.413Z,0.00
2024-04-10T01:40:53.773Z,0.00
2024-04-10T01:41:53.444Z,0.00
2024-04-10T01:42:53.607Z,0.00
2024-04-10T01:44:15.452Z,0.00
2024-04-10T01:44:53.732Z,0.00
2024-04-10T01:45:53.390Z,0.00
2024-04-10T01:46:53.295Z,0.00
2024-04-10T01:47:53.563Z,0.00
2024-04-10T01:48:53.297Z,0.00
2024-04-10T01:49:53.439Z,0.00
2024-04-10T01:50:53.285Z,0.00
2024-04-10T01:51:53.659Z,0.00
2024-04-10T01:52:53.619Z,0.00
2024-04-10T01:54:13.676Z,0.00
2024-04-10T01:54:53.411Z,0.00
2024-04-10T01:55:53.213Z,0.00
2024-04-10T01:56:53.380Z,0.00
2024-04-10T01:57:53.208Z,0.00
2024-04-10T01:58:53.503Z,0.00
2024-04-10T01:59:53.069Z,0.00
2024-04-10T02:00:53.380Z,0.00
2024-04-10T02:01:53.086Z,0.00
2024-04-10T02:02:53.424Z,0.00
2024-04-10T02:04:15.111Z,0.00
2024-04-10T02:04:53.282Z,0.00
2024-04-10T02:05:52.983Z,0.00
2024-04-10T02:06:53.204Z,0.00
2024-04-10T02:07:53.414Z,0.00
2024-04-10T02:08:53.114Z,0.00
2024-04-10T02:09:53.331Z,0.00
2024-04-10T02:10:53.124Z,0.00
2024-04-10T02:11:53.404Z,0.00
2024-04-10T02:12:53.042Z,0.00
2024-04-10T02:14:13.859Z,0.00
2024-04-10T02:14:53.165Z,0.00
2024-04-10T02:15:52.884Z,0.00
2024-04-10T02:16:53.253Z,0.00
2024-04-10T02:17:53.024Z,0.00
2024-04-10T02:18:53.088Z,0.00
2024-04-10T02:19:53.311Z,0.00
2024-04-10T02:20:53.015Z,0.00
2024-04-10T02:21:52.742Z,0.00
2024-04-10T02:22:53.007Z,0.00
2024-04-10T02:24:14.710Z,0.00
2024-04-10T02:24:52.984Z,0.00
2024-04-10T02:25:53.233Z,0.00
2024-04-10T02:26:52.914Z,0.00
2024-04-10T02:27:53.145Z,0.00
2024-04-10T02:28:52.886Z,0.00
2024-04-10T02:29:53.085Z,0.00
2024-04-10T02:30:52.807Z,0.00
2024-04-10T02:31:53.100Z,0.00
2024-04-10T02:32:53.068Z,0.00
2024-04-10T02:34:15.102Z,0.00
2024-04-10T02:34:52.796Z,0.00
2024-04-10T02:35:53.000Z,0.00
2024-04-10T02:36:52.718Z,0.00
2024-04-10T02:37:52.952Z,0.00
2024-04-10T02:38:52.656Z,0.00
2024-04-10T02:39:52.876Z,0.00
2024-04-10T02:40:52.628Z,0.00
2024-04-10T02:41:52.833Z,0.00
2024-04-10T02:42:53.268Z,0.00
2024-04-10T02:44:12.863Z,0.00
2024-04-10T02:44:54.600Z,0.00
2024-04-10T02:45:54.903Z,0.00
2024-04-10T02:46:54.622Z,0.00
2024-04-10T02:47:53.721Z,0.00
2024-04-10T02:48:54.661Z,0.00
2024-04-10T02:49:53.991Z,0.00
2024-04-10T02:50:54.735Z,0.00
2024-04-10T02:51:54.485Z,0.00
2024-04-10T02:52:54.824Z,0.00
2024-04-10T02:54:12.638Z,0.00
2024-04-10T02:54:53.636Z,0.00
2024-04-10T02:55:53.667Z,0.00
2024-04-10T02:56:53.898Z,0.00
2024-04-10T02:57:53.405Z,0.00
2024-04-10T02:58:54.502Z,0.00
2024-04-10T02:59:54.733Z,0.00
2024-04-10T03:00:52.755Z,0.00
2024-04-10T03:01:54.411Z,0.00
2024-04-10T03:02:54.741Z,0.00
2024-04-10T03:04:12.452Z,0.00
2024-04-10T03:04:54.653Z,0.00
2024-04-10T03:05:54.436Z,0.00
2024-04-10T03:06:53.706Z,0.00
2024-04-10T03:07:54.490Z,0.00
2024-04-10T03:08:54.306Z,0.00
2024-04-10T03:09:54.172Z,0.00
2024-04-10T03:10:53.076Z,0.00
2024-04-10T03:11:54.733Z,0.00
2024-04-10T03:12:53.460Z,0.00
2024-04-10T03:14:12.257Z,0.00
2024-04-10T03:14:54.437Z,0.00
2024-04-10T03:15:54.205Z,0.00
2024-04-10T03:16:54.601Z,0.00
2024-04-10T03:17:54.334Z,0.00
2024-04-10T03:18:53.619Z,0.00
2024-04-10T03:19:53.160Z,0.00
2024-04-10T03:20:54.615Z,0.00
2024-04-10T03:21:53.412Z,0.00
2024-04-10T03:22:56.032Z,0.00
2024-04-10T03:24:13.420Z,0.00
2024-04-10T03:24:54.174Z,0.00
2024-04-10T03:25:54.583Z,0.00
2024-04-10T03:26:54.296Z,0.00
2024-04-10T03:27:54.069Z,0.00
2024-04-10T03:28:54.439Z,0.00
2024-04-10T03:29:53.166Z,0.00
2024-04-10T03:30:54.389Z,0.00
2024-04-10T03:31:54.234Z,0.00
2024-04-10T03:32:53.296Z,0.00
2024-04-10T03:34:12.369Z,0.00
2024-04-10T03:34:53.516Z,0.00
2024-04-10T03:35:54.241Z,0.00
2024-04-10T03:36:54.029Z,0.00
2024-04-10T03:37:54.331Z,0.00
2024-04-10T03:38:54.041Z,0.00
2024-04-10T03:39:53.315Z,0.00
2024-04-10T03:40:53.153Z,0.00
2024-04-10T03:41:54.014Z,0.00
2024-04-10T03:42:54.272Z,0.00
2024-04-10T03:44:12.118Z,0.00
2024-04-10T03:44:54.317Z,0.00
2024-04-10T03:45:53.070Z,0.00
2024-04-10T03:46:53.472Z,0.00
2024-04-10T03:47:54.361Z,0.00
2024-04-10T03:48:54.027Z,0.00
2024-04-10T03:49:53.254Z,0.00
2024-04-10T03:50:52.366Z,0.00
2024-04-10T03:51:53.257Z,0.00
2024-04-10T03:52:53.139Z,0.00
2024-04-10T03:54:11.825Z,0.00
2024-04-10T03:54:54.033Z,0.00
2024-04-10T03:55:53.887Z,0.00
2024-04-10T03:56:54.085Z,0.00
2024-04-10T03:57:52.937Z,0.00
2024-04-10T03:58:53.294Z,0.00
2024-04-10T03:59:52.702Z,0.00
2024-04-10T04:00:53.796Z,0.00
2024-04-10T04:01:54.073Z,0.00
2024-04-10T04:02:53.901Z,0.00
2024-04-10T04:04:12.120Z,0.00
2024-04-10T04:04:53.824Z,0.00
2024-04-10T04:05:53.580Z,0.00
2024-04-10T04:06:53.841Z,0.00
2024-04-10T04:07:54.202Z,0.00
2024-04-10T04:08:53.899Z,0.00
2024-04-10T04:09:52.654Z,0.00
2024-04-10T04:10:52.820Z,0.00
2024-04-10T04:11:53.851Z,0.00
2024-04-10T04:12:53.518Z,0.00
2024-04-10T04:14:11.851Z,0.00
2024-04-10T04:14:52.310Z,0.00
2024-04-10T04:15:52.378Z,0.00
2024-04-10T04:16:52.609Z,1.00
2024-04-10T04:17:52.965Z,1.00
2024-04-10T04:18:53.159Z,1.00
2024-04-10T04:19:53.933Z,1.00
2024-04-10T04:20:53.739Z,1.00
2024-04-10T04:21:52.966Z,1.00
2024-04-10T04:22:53.859Z,2.00
2024-04-10T04:24:20.661Z,2.00
2024-04-10T04:24:53.364Z,2.00
2024-04-10T04:25:52.763Z,4.00
2024-04-10T04:26:53.543Z,0.00
2024-04-10T04:27:52.808Z,4.00
2024-04-10T04:28:53.653Z,7.00
2024-04-10T04:29:53.873Z,6.00
2024-04-10T04:30:52.611Z,5.00
2024-04-10T04:31:53.433Z,3.00
2024-04-10T04:32:53.331Z,9.00
2024-04-10T04:34:11.640Z,13.00
2024-04-10T04:34:53.686Z,16.00
2024-04-10T04:35:53.430Z,6.00
2024-04-10T04:36:53.742Z,18.00
2024-04-10T04:37:53.516Z,15.00
2024-04-10T04:38:52.584Z,21.00
2024-04-10T04:39:52.623Z,28.00
2024-04-10T04:40:53.412Z,30.00
2024-04-10T04:41:53.606Z,25.00
2024-04-10T04:42:53.420Z,40.00
2024-04-10T04:44:13.806Z,49.00
2024-04-10T04:44:52.431Z,52.00
2024-04-10T04:45:52.667Z,54.00
2024-04-10T04:46:53.025Z,59.00
2024-04-10T04:47:53.281Z,71.00
2024-04-10T04:48:53.186Z,83.00
2024-04-10T04:49:53.363Z,86.00
2024-04-10T04:50:53.988Z,83.00
2024-04-10T04:51:51.363Z,89.00
2024-04-10T04:52:51.742Z,105.00
2024-04-10T04:54:12.297Z,112.00
2024-04-10T04:54:53.644Z,105.00
2024-04-10T04:55:53.402Z,123.00
2024-04-10T04:56:52.222Z,135.00
2024-04-10T04:57:52.499Z,138.00
2024-04-10T04:58:53.406Z,143.00
2024-04-10T04:59:53.070Z,160.00
2024-04-10T05:00:53.421Z,167.00
2024-04-10T05:01:53.190Z,174.00
2024-04-10T05:02:52.092Z,212.00
2024-04-10T05:04:11.259Z,231.00
2024-04-10T05:04:53.480Z,237.00
2024-04-10T05:05:52.722Z,260.00
2024-04-10T05:06:53.483Z,285.00
2024-04-10T05:07:53.323Z,308.00
2024-04-10T05:08:53.026Z,318.00
2024-04-10T05:09:51.828Z,339.00
2024-04-10T05:10:51.172Z,354.00
2024-04-10T05:11:51.511Z,367.00
2024-04-10T05:12:52.562Z,394.00
2024-04-10T05:14:11.370Z,425.00
2024-04-10T05:14:52.120Z,436.00
2024-04-10T05:15:52.423Z,456.00
2024-04-10T05:16:53.182Z,478.00
2024-04-10T05:17:53.154Z,516.00
2024-04-10T05:18:53.220Z,541.00
2024-04-10T05:19:51.422Z,575.00
2024-04-10T05:20:52.376Z,600.00
2024-04-10T05:21:52.057Z,625.00
2024-04-10T05:22:51.389Z,649.00
2024-04-10T05:24:13.082Z,689.00
2024-04-10T05:24:51.324Z,706.00
2024-04-10T05:25:50.516Z,737.00
2024-04-10T05:26:51.319Z,756.00
2024-04-10T05:27:51.370Z,789.00
2024-04-10T05:28:52.301Z,815.00
2024-04-10T05:29:51.825Z,852.00
2024-04-10T05:30:53.087Z,874.00
2024-04-10T05:31:52.268Z,913.00
2024-04-10T05:32:51.022Z,939.00
2024-04-10T05:34:11.205Z,983.00
2024-04-10T05:34:51.752Z,993.00
2024-04-10T05:35:53.035Z,1029.00
2024-04-10T05:36:52.788Z,1074.00
2024-04-10T05:37:51.240Z,1107.00
2024-04-10T05:38:52.259Z,1145.00
2024-04-10T05:39:51.217Z,1170.00
2024-04-10T05:40:51.719Z,1074.00
2024-04-10T05:41:52.155Z,1135.00
2024-04-10T05:42:52.128Z,1157.00
2024-04-10T05:44:10.240Z,1141.00
2024-04-10T05:44:51.113Z,1141.00
2024-04-10T05:45:51.214Z,1175.00
2024-04-10T05:46:52.173Z,1195.00
2024-04-10T05:47:51.421Z,1188.00
2024-04-10T05:48:52.311Z,1181.00
2024-04-10T05:49:52.111Z,1181.00
2024-04-10T05:50:50.882Z,1209.00
2024-04-10T05:51:51.092Z,1224.00
2024-04-10T05:52:51.082Z,1220.00
2024-04-10T05:54:10.800Z,1210.00
2024-04-10T05:54:52.563Z,1226.00
2024-04-10T05:55:51.618Z,1249.00
2024-04-10T05:56:52.602Z,1270.00
2024-04-10T05:57:51.856Z,1307.00
2024-04-10T05:58:52.648Z,1355.00
2024-04-10T05:59:52.864Z,1375.00
2024-04-10T06:00:54.978Z,1371.00
2024-04-10T06:01:52.960Z,1394.00
2024-04-10T06:02:52.864Z,1434.00
2024-04-10T06:04:11.996Z,1495.00
2024-04-10T06:04:58.011Z,1477.00
2024-04-10T06:05:50.729Z,1507.00
2024-04-10T06:06:50.442Z,1598.00
2024-04-10T06:07:50.701Z,1776.00
2024-04-10T06:08:50.378Z,2115.00
2024-04-10T06:09:50.604Z,2211.00
2024-04-10T06:10:50.877Z,1740.00
2024-04-10T06:11:50.653Z,1701.00
2024-04-10T06:12:50.762Z,1763.00
2024-04-10T06:14:12.539Z,1737.00
2024-04-10T06:14:50.746Z,1748.00
2024-04-10T06:15:50.475Z,1725.00
2024-04-10T06:16:50.763Z,1696.00
2024-04-10T06:17:50.464Z,1696.00
2024-04-10T06:18:50.626Z,1667.00
2024-04-10T06:19:50.439Z,1470.00
2024-04-10T06:20:50.574Z,1558.00
2024-04-10T06:21:50.304Z,1605.00
2024-04-10T06:22:50.550Z,1686.00
2024-04-10T06:24:12.725Z,1963.00
2024-04-10T06:24:50.513Z,2069.00
2024-04-10T06:25:50.291Z,2204.00
2024-04-10T06:26:50.426Z,2275.00
2024-04-10T06:27:50.646Z,2390.00
2024-04-10T06:28:50.455Z,2579.00
2024-04-10T06:29:50.584Z,2727.00
2024-04-10T06:30:50.321Z,2762.00
2024-04-10T06:31:50.564Z,2747.00
2024-04-10T06:32:50.387Z,2719.00
2024-04-10T06:34:12.739Z,2734.00
2024-04-10T06:34:52.252Z,2739.00
2024-04-10T06:35:50.512Z,2752.00
2024-04-10T06:36:50.230Z,2795.00
2024-04-10T06:37:50.479Z,2745.00
2024-04-10T06:38:50.167Z,2750.00
2024-04-10T06:39:50.382Z,2790.00
2024-04-10T06:40:50.187Z,2831.00
2024-04-10T06:41:50.367Z,2870.00
2024-04-10T06:42:50.082Z,2934.00
2024-04-10T06:44:10.627Z,2995.00
2024-04-10T06:44:50.116Z,3018.00
2024-04-10T06:45:50.334Z,3064.00
2024-04-10T06:46:50.143Z,3086.00
2024-04-10T06:47:51.797Z,3153.00
2024-04-10T06:48:50.275Z,3223.00
2024-04-10T06:49:50.921Z,3277.00
2024-04-10T06:50:50.079Z,3308.00
2024-04-10T06:51:50.283Z,3354.00
2024-04-10T06:52:50.070Z,3469.00
2024-04-10T06:54:12.232Z,3908.00
2024-04-10T06:54:50.036Z,4247.00
2024-04-10T06:55:50.259Z,4437.00
2024-04-10T06:56:50.003Z,4132.00
2024-04-10T06:57:50.182Z,4080.00
2024-04-10T06:58:49.962Z,4176.00
2024-04-10T06:59:50.177Z,4190.00
2024-04-10T07:00:51.348Z,4363.00
2024-04-10T07:01:51.040Z,4360.00
2024-04-10T07:02:50.390Z,4350.00
2024-04-10T07:04:12.121Z,4353.00
2024-04-10T07:04:51.264Z,4336.00
2024-04-10T07:05:50.349Z,4343.00
2024-04-10T07:06:49.831Z,4358.00
2024-04-10T07:07:50.076Z,4350.00
2024-04-10T07:08:49.842Z,4250.00
2024-04-10T07:09:49.988Z,4169.00
2024-04-10T07:10:50.343Z,4097.00
2024-04-10T07:11:50.005Z,4052.00
2024-04-10T07:12:50.166Z,4039.00
2024-04-10T07:14:09.967Z,4039.00
2024-04-10T07:14:50.092Z,4055.00
2024-04-10T07:15:49.845Z,4075.00
2024-04-10T07:16:50.144Z,4113.00
2024-04-10T07:17:49.927Z,4131.00
2024-04-10T07:18:50.033Z,4172.00
2024-04-10T07:19:49.851Z,4232.00
2024-04-10T07:20:49.950Z,4297.00
2024-04-10T07:21:49.672Z,4366.00
2024-04-10T07:22:49.964Z,4459.00
2024-04-10T07:24:10.133Z,4552.00
2024-04-10T07:24:49.853Z,4607.00
2024-04-10T07:25:50.119Z,4697.00
2024-04-10T07:26:49.843Z,4763.00
2024-04-10T07:27:49.999Z,4844.00
2024-04-10T07:28:49.740Z,4956.00
2024-04-10T07:29:49.931Z,5041.00
2024-04-10T07:30:49.666Z,5131.00
2024-04-10T07:31:49.964Z,5233.00
2024-04-10T07:32:49.758Z,5352.00
2024-04-10T07:34:09.975Z,5546.00
2024-04-10T07:34:49.618Z,5644.00
2024-04-10T07:35:49.808Z,5816.00
2024-04-10T07:36:50.239Z,6059.00
2024-04-10T07:37:49.853Z,6360.00
2024-04-10T07:38:49.491Z,6638.00
2024-04-10T07:39:49.706Z,7144.00
2024-04-10T07:40:49.943Z,7537.00
2024-04-10T07:41:49.724Z,8024.00
2024-04-10T07:42:49.898Z,9472.00
2024-04-10T07:44:09.756Z,14054.00
2024-04-10T07:44:49.907Z,14682.00
2024-04-10T07:45:49.570Z,14529.00
2024-04-10T07:46:50.070Z,14094.00
2024-04-10T07:47:49.688Z,14118.00
2024-04-10T07:48:49.938Z,15614.00
2024-04-10T07:49:49.578Z,17942.00
2024-04-10T07:50:49.701Z,18255.00
2024-04-10T07:51:49.416Z,16572.00
2024-04-10T07:52:49.670Z,16059.00
2024-04-10T07:54:19.071Z,14641.00
2024-04-10T07:54:48.793Z,14211.00
2024-04-10T07:55:49.763Z,14296.00
2024-04-10T07:56:49.753Z,15182.00
2024-04-10T07:57:49.510Z,15761.00
2024-04-10T07:58:49.770Z,16563.00
2024-04-10T07:59:51.384Z,16837.00
2024-04-10T08:00:49.733Z,17906.00
2024-04-10T08:01:49.424Z,17396.00
2024-04-10T08:02:49.736Z,17814.00
2024-04-10T08:04:09.698Z,16774.00
2024-04-10T08:04:49.658Z,16758.00
2024-04-10T08:05:49.436Z,12231.00
2024-04-10T08:06:49.514Z,17060.00
2024-04-10T08:07:49.239Z,17677.00
2024-04-10T08:08:49.455Z,10569.00
2024-04-10T08:09:49.172Z,6653.00
2024-04-10T08:10:49.471Z,21675.00
2024-04-10T08:11:51.591Z,7479.00
2024-04-10T08:12:54.607Z,14392.00
2024-04-10T08:14:09.443Z,5774.00
2024-04-10T08:14:49.588Z,5723.00
2024-04-10T08:15:49.296Z,5956.00
2024-04-10T08:16:49.594Z,6502.00
2024-04-10T08:17:49.226Z,20356.00
2024-04-10T08:18:49.534Z,8096.00
2024-04-10T08:19:49.178Z,6742.00
2024-04-10T08:20:49.405Z,6448.00
2024-04-10T08:21:49.101Z,7785.00
2024-04-10T08:22:49.347Z,7021.00
2024-04-10T08:24:09.626Z,7263.00
2024-04-10T08:24:49.278Z,7178.00
2024-04-10T08:25:49.013Z,15600.00
2024-04-10T08:26:49.228Z,6967.00
2024-04-10T08:27:49.444Z,7366.00
2024-04-10T08:28:49.169Z,7739.00
2024-04-10T08:29:49.442Z,7461.00
2024-04-10T08:30:49.114Z,28113.00
2024-04-10T08:31:49.334Z,7991.00
2024-04-10T08:32:49.258Z,37398.00
2024-04-10T08:34:09.567Z,41808.00
2024-04-10T08:34:49.497Z,41307.00
2024-04-10T08:35:49.235Z,6670.00
2024-04-10T08:36:49.065Z,6949.00
2024-04-10T08:40:07.716Z,55395.00
2024-04-10T08:40:19.792Z,40965.00
2024-04-10T08:42:16.418Z,49359.00
2024-04-10T08:42:23.213Z,20499.00
2024-04-10T08:43:23.069Z,8751.00
2024-04-10T08:44:23.251Z,48490.00
2024-04-10T08:48:11.105Z,56793.00
2024-04-10T08:48:17.497Z,49576.00
2024-04-10T08:49:18.689Z,10684.00
2024-04-10T08:50:34.389Z,44410.00
2024-04-10T08:51:18.596Z,32372.00
2024-04-10T08:52:18.335Z,7772.00
2024-04-10T08:53:17.596Z,48166.00
2024-04-10T08:54:17.154Z,33859.00
2024-04-10T08:55:18.657Z,11150.00
2024-04-10T08:56:17.901Z,42398.00
2024-04-10T08:57:36.693Z,39796.00
2024-04-10T08:58:17.357Z,11307.00
2024-04-10T08:59:17.653Z,9034.00
2024-04-10T09:00:18.478Z,33788.00
2024-04-10T09:01:18.613Z,22119.00
2024-04-10T09:02:18.372Z,43546.00
2024-04-10T09:03:18.695Z,38131.00
2024-04-10T09:04:18.504Z,9199.00
2024-04-10T09:05:17.697Z,11959.00
2024-04-10T09:06:18.424Z,42455.00
2024-04-10T09:07:36.179Z,10125.00
2024-04-10T09:08:17.388Z,40873.00
2024-04-10T09:09:17.641Z,42516.00
2024-04-10T09:10:18.168Z,41014.00
2024-04-10T09:11:17.327Z,10602.00
2024-04-10T09:12:17.736Z,21553.00
2024-04-10T09:13:18.360Z,36456.00
2024-04-10T09:14:18.120Z,17721.00
2024-04-10T09:15:18.385Z,45453.00
2024-04-10T09:16:16.971Z,34372.00
2024-04-10T09:17:36.488Z,35487.00
2024-04-10T09:18:18.189Z,41359.00
2024-04-10T09:19:18.660Z,38846.00
2024-04-10T09:20:18.337Z,46496.00
2024-04-10T09:21:18.412Z,44253.00
2024-04-10T09:22:17.167Z,46257.00
2024-04-10T09:23:17.331Z,15369.00
2024-04-10T09:24:17.671Z,8868.00
2024-04-10T09:25:36.033Z,48366.00
2024-04-10T09:26:18.331Z,9837.00
2024-04-10T09:27:36.032Z,10634.00
2024-04-10T09:28:16.977Z,10165.00
2024-04-10T09:29:17.056Z,9600.00
2024-04-10T09:30:17.070Z,9111.00
2024-04-10T09:31:18.079Z,8354.00
2024-04-10T09:32:18.382Z,11196.00
2024-04-10T09:33:18.171Z,47397.00
2024-04-10T09:34:32.943Z,49031.00
2024-04-10T09:35:18.140Z,32920.00
2024-04-10T09:36:17.899Z,8376.00
2024-04-10T09:37:36.175Z,7955.00
2024-04-10T09:38:17.430Z,8182.00
2024-04-10T09:39:18.128Z,10122.00
2024-04-10T09:40:15.959Z,49105.00
2024-04-10T09:41:17.305Z,10319.00
2024-04-10T09:42:18.044Z,48866.00
2024-04-10T09:43:54.713Z,47550.00
2024-04-10T09:44:16.208Z,47396.00
2024-04-10T09:48:19.746Z,45156.00
2024-04-10T09:48:25.714Z,46076.00
2024-04-10T09:49:46.345Z,25714.00
2024-04-10T09:50:25.082Z,7465.00
2024-04-10T09:51:25.248Z,7194.00
2024-04-10T09:52:25.481Z,7849.00
2024-04-10T09:58:44.955Z,48332.00
2024-04-10T09:58:51.671Z,43643.00
2024-04-10T09:59:52.696Z,13894.00
2024-04-10T10:00:51.847Z,11898.00
2024-04-10T10:04:39.055Z,44909.00
2024-04-10T10:04:45.994Z,41942.00
2024-04-10T10:06:04.741Z,11532.00
2024-04-10T10:06:46.325Z,8399.00
2024-04-10T10:07:46.231Z,7945.00
2024-04-10T10:08:46.403Z,8970.00
2024-04-10T10:10:00.652Z,45692.00
2024-04-10T10:10:46.397Z,14226.00
2024-04-10T10:11:45.431Z,11639.00
2024-04-10T10:12:46.360Z,9568.00
2024-04-10T10:13:46.209Z,8776.00
2024-04-10T10:14:46.479Z,8897.00
2024-04-10T10:16:04.809Z,8268.00
2024-04-10T10:16:46.450Z,9827.00
2024-04-10T10:17:53.933Z,8963.00
2024-04-10T10:18:47.575Z,9023.00
2024-04-10T10:19:46.282Z,9348.00
2024-04-10T10:20:45.646Z,13029.00
2024-04-10T10:22:38.873Z,45180.00
2024-04-10T10:22:45.371Z,17397.00
2024-04-10T10:23:46.588Z,13975.00
2024-04-10T10:24:45.045Z,12608.00
2024-04-10T10:26:04.578Z,9964.00
2024-04-10T10:26:46.325Z,9562.00
2024-04-10T10:27:45.594Z,10186.00
2024-04-10T10:28:46.356Z,17142.00
2024-04-10T10:29:46.234Z,11373.00
2024-04-10T10:30:46.701Z,10156.00
2024-04-10T10:31:46.265Z,19553.00
2024-04-10T10:38:41.699Z,45770.00
2024-04-10T10:38:48.641Z,16150.00
2024-04-10T10:39:49.281Z,14258.00
2024-04-10T10:41:09.124Z,8612.00
2024-04-10T10:41:50.280Z,9256.00
2024-04-10T10:42:49.032Z,10353.00
2024-04-10T10:43:48.297Z,15434.00
2024-04-10T10:46:24.076Z,54179.00
2024-04-10T10:46:28.827Z,16728.00
2024-04-10T10:47:29.656Z,8914.00
2024-04-10T10:48:29.783Z,7703.00
2024-04-10T10:49:29.607Z,6843.00
2024-04-10T10:50:29.795Z,6788.00
2024-04-10T10:51:51.359Z,7137.00
2024-04-10T10:52:29.732Z,7478.00
2024-04-10T10:53:35.790Z,8417.00
2024-04-10T10:54:29.547Z,10022.00
2024-04-10T10:55:29.267Z,18316.00
2024-04-10T10:57:28.479Z,49038.00
2024-04-10T10:57:34.687Z,22668.00
2024-04-10T10:58:34.690Z,9636.00
2024-04-10T10:59:35.789Z,8460.00
2024-04-10T11:00:35.089Z,8235.00
2024-04-10T11:01:53.731Z,8126.00
2024-04-10T11:02:36.011Z,7857.00
2024-04-10T11:03:35.775Z,8343.00
2024-04-10T11:04:36.174Z,9759.00
2024-04-10T11:05:35.786Z,10399.00
2024-04-10T11:06:34.761Z,10988.00
2024-04-10T11:07:35.729Z,21930.00
2024-04-10T11:08:36.040Z,12332.00
2024-04-10T11:09:35.307Z,11726.00
2024-04-10T11:10:59.641Z,51571.00
2024-04-10T11:21:40.461Z,52790.00
2024-04-10T11:21:47.197Z,13920.00
2024-04-10T11:22:48.485Z,9522.00
2024-04-10T11:23:48.319Z,12268.00
2024-04-10T11:26:14.021Z,48587.00
2024-04-10T11:27:20.285Z,30551.00
2024-04-10T11:27:25.013Z,37844.00
2024-04-10T11:28:26.743Z,52225.00
2024-04-10T11:29:25.984Z,46946.00
2024-04-10T11:30:25.663Z,33344.00
2024-04-10T11:31:46.503Z,24997.00
2024-04-10T11:32:25.798Z,30849.00
2024-04-10T11:33:26.078Z,36188.00
2024-04-10T11:34:25.751Z,47946.00
2024-04-10T11:35:52.952Z,56917.00
2024-04-10T11:36:25.593Z,42759.00
2024-04-10T11:37:45.294Z,58625.00
2024-04-10T11:38:29.607Z,60192.00
2024-04-10T11:40:16.795Z,49900.00
2024-04-10T11:40:24.881Z,41353.00
2024-04-10T11:42:14.112Z,55754.00
2024-04-10T11:42:24.874Z,13836.00
2024-04-10T11:43:25.580Z,14313.00
2024-04-10T11:44:25.850Z,14019.00
2024-04-10T11:45:25.531Z,39787.00
2024-04-10T11:46:25.755Z,54948.00
2024-04-10T11:47:25.600Z,44782.00
2024-04-10T11:48:27.812Z,53236.00
2024-04-10T11:49:46.175Z,56050.00
2024-04-10T11:50:25.761Z,43238.00
2024-04-10T11:51:47.418Z,44147.00
2024-04-10T11:52:25.677Z,36845.00
2024-04-10T11:53:25.448Z,35842.00
2024-04-10T11:54:25.636Z,33317.00
2024-04-10T11:55:25.366Z,41229.00
2024-04-10T11:56:25.610Z,36992.00
2024-04-10T11:57:25.299Z,36833.00
2024-04-10T11:58:25.503Z,41748.00
2024-04-10T11:59:25.505Z,38451.00
2024-04-10T12:00:25.487Z,41569.00
2024-04-10T12:01:45.226Z,20340.00
2024-04-10T12:02:25.531Z,22659.00
2024-04-10T12:03:25.276Z,24563.00
2024-04-10T12:04:25.467Z,27902.00
2024-04-10T12:05:25.696Z,22150.00
2024-04-10T12:06:25.442Z,15209.00
2024-04-10T12:07:25.575Z,13475.00
2024-04-10T12:08:25.313Z,13712.00
2024-04-10T12:09:25.505Z,13830.00
2024-04-10T12:10:25.216Z,12914.00
2024-04-10T12:11:47.037Z,13662.00
2024-04-10T12:12:25.300Z,13448.00
2024-04-10T12:13:25.433Z,14771.00
2024-04-10T12:14:25.190Z,41732.00
2024-04-10T12:15:25.397Z,32795.00
2024-04-10T12:16:25.107Z,36921.00
2024-04-10T12:17:25.432Z,29707.00
2024-04-10T12:18:32.444Z,25401.00
2024-04-10T12:19:25.036Z,26104.00
2024-04-10T12:20:25.463Z,37294.00
2024-04-10T12:21:45.489Z,28952.00
2024-04-10T12:22:25.201Z,18024.00
2024-04-10T12:23:25.483Z,14288.00
2024-04-10T12:24:25.145Z,12851.00
2024-04-10T12:25:25.406Z,21260.00
2024-04-10T12:26:25.114Z,14989.00
2024-04-10T12:27:25.313Z,29870.00
2024-04-10T12:28:25.039Z,15925.00
2024-04-10T12:29:25.322Z,9362.00
2024-04-10T12:30:24.991Z,21457.00
2024-04-10T12:31:45.231Z,26315.00
2024-04-10T12:32:25.024Z,30220.00
2024-04-10T12:33:25.296Z,21428.00
2024-04-10T12:34:25.093Z,23047.00
2024-04-10T12:35:25.187Z,60291.00
2024-04-10T12:36:35.313Z,59637.00
2024-04-10T12:37:25.019Z,35529.00
2024-04-10T12:38:25.256Z,39213.00
2024-04-10T12:39:24.960Z,43640.00
2024-04-10T12:40:25.193Z,19578.00
2024-04-10T12:41:44.957Z,18231.00
2024-04-10T12:42:25.160Z,19965.00
2024-04-10T12:43:26.831Z,17818.00
2024-04-10T12:44:25.176Z,32653.00
2024-04-10T12:45:24.830Z,35536.00
2024-04-10T12:46:25.642Z,35339.00
2024-04-10T12:47:24.831Z,35295.00
2024-04-10T12:48:25.079Z,50486.00
2024-04-10T12:49:24.771Z,41136.00
2024-04-10T12:50:25.017Z,29547.00
2024-04-10T12:51:45.183Z,22916.00
2024-04-10T12:52:24.913Z,26436.00
2024-04-10T12:53:25.192Z,28124.00
2024-04-10T12:54:24.885Z,26092.00